• Join FlightAware (Why Join?)
  • Login
  • US Flag 
Rudolph Flight #1: Arrived! 
03:19PM EST


 

Airport Tracker/Info


-or-


 

Live Flight TrackerFlight Track Log ✈ SWA864 ✈ 02-Nov-2013 ✈ KLAX - KHOU

Flight Track Log - Related Links

Times and Time Zones

All times are in EDT time to prevent confusion due to time zone crossing. See the SWA864 flight status page for this flight to view local times or setup timezone preferences in your user account.

Time Position Orientation Groundspeed Altitude Reporting Facility
EDT Latitude Longitude Course Direction KTS MPH feet Rate Location/Type
08:03PM 33.9460 -118.4440 262° West 162 186 1,600  Level FlightAware
08:03PM 33.9400 -118.4800 259° West 211 243 2,600 1,860 Climbing FlightAware
08:04PM 33.9210 -118.5040 226° Southwest 249 287 3,500 2,220 Climbing FlightAware
08:04PM 33.9030 -118.5230 221° Southwest 263 303 4,400 3,240 Climbing FlightAware
08:04PM 33.8750 -118.5460 214° Southwest 270 311 6,100 3,600 Climbing FlightAware
08:05PM 33.8580 -118.5470 183° South 275 316 6,800 2,160 Climbing FlightAware
08:05PM 33.8070 -118.5400 173° South 286 329 8,000 1,560 Climbing FlightAware
08:06PM 33.7810 -118.5350 171° South 292 336 8,400 1,740 Climbing FlightAware
08:06PM 33.7610 -118.5320 173° South 294 338 9,100 2,760 Climbing FlightAware
08:07PM 33.6960 -118.5010 158° South 337 388 11,400 3,000 Climbing FlightAware
08:07PM 33.6790 -118.4590 116° Southeast 342 394 12,800 3,420 Climbing FlightAware
08:07PM 33.6760 -118.4210 95° East 346 398 14,000 3,120 Climbing FlightAware
08:08PM 33.6750 -118.3230 91° East 367 422 16,500 3,060 Climbing FlightAware
08:09PM 33.6740 -118.2240 91° East 374 430 19,100 2,880 Climbing FlightAware
08:10PM 33.6720 -118.1260 91° East 389 448 21,100 2,520 Climbing FlightAware
08:11PM 33.6700 -117.9870 91° East 406 467 23,700 2,340 Climbing FlightAware
08:11PM 33.6690 -117.9190 91° East 413 475 24,800 2,100 Climbing FlightAware
08:12PM 33.6670 -117.7970 91° East 424 488 26,600 1,980 Climbing FlightAware
08:13PM 33.6650 -117.6840 91° East 434 499 28,100 1,680 Climbing FlightAware
08:14PM 33.6630 -117.5720 91° East 448 516 29,300 1,440 Climbing FlightAware
08:15PM 33.6610 -117.4530 91° East 460 529 30,400 1,320 Climbing FlightAware
08:15PM 33.6590 -117.3580 91° East 467 537 31,200 1,200 Climbing FlightAware
08:16PM 33.6570 -117.2660 91° East 475 547 31,900 1,320 Climbing FlightAware
08:17PM 33.6540 -117.1400 92° East 479 551 33,100 1,260 Climbing FlightAware
08:17PM 33.6510 -117.0110 92° East 488 562 34,000 1,080 Climbing FlightAware
08:18PM 33.6450 -116.8790 93° East 494 568 34,900 1,380 Climbing FlightAware
08:19PM 33.6330 -116.7350 96° East 488 562 36,300 1,320 Climbing FlightAware
08:20PM 33.6230 -116.6060 95° East 490 564 37,100 1,080 Climbing FlightAware
08:21PM 33.6110 -116.4640 96° East 486 559 38,200 1,260 Climbing FlightAware
08:21PM 33.6050 -116.3960 96° East 481 554 38,800 600 Climbing FlightAware
08:22PM 33.5930 -116.2590 96° East 483 556 39,000 60 Climbing FlightAware
08:23PM 33.5810 -116.1210 96° East 484 557 39,000  Level FlightAware
08:24PM 33.5670 -115.9630 96° East 485 558 39,000  Level FlightAware
08:25PM 33.5590 -115.8730 96° East 487 560 39,000  Level FlightAware
08:26PM 33.5460 -115.7260 96° East 487 560 39,000  Level FlightAware
08:26PM 33.5330 -115.5940 97° East 39,000  Level FlightAware
08:27PM 33.5220 -115.4680 96° East 491 565 39,000  Level FlightAware
08:28PM 33.5070 -115.3150 97° East 491 565 39,000  Level FlightAware
08:29PM 33.4940 -115.1740 96° East 493 567 39,000  Level FlightAware
08:30PM 33.4850 -115.0560 95° East 493 567 39,000  Level FlightAware
08:31PM 33.4650 -114.8740 97° East 497 572 39,000  Level FlightAware
08:32PM 33.4550 -114.7720 97° East 499 574 39,000  Level FlightAware
08:32PM 33.4480 -114.7070 97° East 500 575 39,000  Level FlightAware
08:33PM 33.4300 -114.5270 97° East 500 575 39,000  Level FlightAware
08:34PM 33.4190 -114.4180 97° East 501 577 39,000  Level FlightAware
08:34PM 33.4020 -114.2480 97° East 501 577 39,000  Level FlightAware
08:35PM 33.3890 -114.1240 97° East 500 575 39,000  Level FlightAware
08:36PM 33.3760 -114.0030 97° East 498 573 39,000  Level FlightAware
08:37PM 33.3590 -113.8410 97° East 498 573 39,000  Level FlightAware
08:37PM 33.3510 -113.7630 97° East 498 573 39,000  Level FlightAware
08:38PM 33.3320 -113.5940 98° East 500 575 39,000  Level FlightAware
08:39PM 33.3220 -113.5050 98° East 500 575 39,000  Level FlightAware
08:40PM 33.3090 -113.3780 97° East 501 577 39,000  Level FlightAware
08:41PM 33.2950 -113.2520 98° East 502 578 39,000  Level FlightAware
08:41PM 33.2820 -113.1350 98° East 503 579 39,000  Level FlightAware
08:42PM 33.2710 -113.0410 98° East 503 579 39,000  Level FlightAware
08:43PM 33.2550 -112.9030 98° East 505 581 39,000  Level FlightAware
08:43PM 33.2490 -112.8470 97° East 505 581 39,000  Level FlightAware
08:44PM 33.2290 -112.6740 98° East 506 582 39,000  Level FlightAware
08:45PM 33.2130 -112.5400 98° East 505 581 39,000  Level FlightAware
08:45PM 33.2050 -112.4720 98° East 506 582 39,000  Level FlightAware
08:46PM 33.1870 -112.3160 98° East 506 582 39,000  Level FlightAware
08:47PM 33.1680 -112.1610 98° East 507 583 39,000  Level FlightAware
08:48PM 33.1520 -112.0280 98° East 505 581 39,000  Level FlightAware
08:49PM 33.1360 -111.8950 98° East 505 581 39,000  Level FlightAware
08:50PM 33.1190 -111.7630 99° East 508 585 39,000  Level FlightAware
08:51PM 33.1000 -111.6060 98° East 511 588 39,000  Level FlightAware
08:51PM 33.0830 -111.4740 99° East 511 588 39,000  Level FlightAware
08:52PM 33.0640 -111.3250 99° East 510 587 39,000  Level FlightAware
08:53PM 33.0450 -111.1790 99° East 510 587 39,000  Level FlightAware
08:54PM 33.0310 -111.0700 99° East 507 583 39,000  Level FlightAware
08:54PM 33.0190 -110.9760 99° East 505 581 39,000  Level FlightAware
08:55PM 33.0030 -110.8550 99° East 503 579 39,000  Level FlightAware
08:56PM 32.9830 -110.7020 99° East 502 578 39,000  Level FlightAware
08:56PM 32.9740 -110.6360 99° East 503 579 39,000  Level FlightAware
08:57PM 32.9560 -110.5000 99° East 507 583 39,000  Level FlightAware
08:58PM 32.9400 -110.3800 99° East 507 583 39,000  Level FlightAware
08:59PM 32.9250 -110.2680 99° East 507 583 39,000  Level FlightAware
08:59PM 32.9090 -110.1580 100° East 508 585 39,000  Level FlightAware
09:00PM 32.8920 -110.0330 99° East 505 581 39,000  Level FlightAware
09:01PM 32.8760 -109.9120 99° East 508 585 39,000  Level FlightAware
09:01PM 32.8660 -109.8450 100° East 509 586 39,000  Level FlightAware
09:02PM 32.8430 -109.6790 99° East 511 588 39,000  Level FlightAware
09:03PM 32.8200 -109.5210 100° East 512 589 39,000  Level FlightAware
09:04PM 32.8000 -109.3760 99° East 511 588 39,000  Level FlightAware
09:05PM 32.7830 -109.2640 100° East 511 588 39,000  Level FlightAware
09:05PM 32.7720 -109.1870 100° East 513 590 39,000  Level FlightAware
09:06PM 32.7480 -109.0230 100° East 514 592 39,000  Level FlightAware
09:07PM 32.7270 -108.8820 100° East 513 590 39,000  Level FlightAware
09:08PM 32.7060 -108.7390 100° East 513 590 39,000  Level FlightAware
09:09PM 32.6840 -108.5900 100° East 513 590 39,000  Level FlightAware
09:10PM 32.6580 -108.4170 100° East 514 592 39,000  Level FlightAware
09:10PM 32.6440 -108.3300 101° East 513 590 39,000  Level FlightAware
09:11PM 32.6210 -108.1760 100° East 510 587 39,000  Level FlightAware
09:12PM 32.6010 -108.0440 100° East 509 586 39,000  Level FlightAware
09:13PM 32.5880 -107.9600 100° East 509 586 39,000  Level FlightAware
09:13PM 32.5760 -107.8750 99° East 509 586 39,000  Level FlightAware
09:14PM 32.5670 -107.8190 101° East 509 586 39,000  Level FlightAware
09:14PM 32.5550 -107.7350 100° East 509 586 39,000  Level FlightAware
09:15PM 32.5380 -107.6230 100° East 509 586 39,000  Level FlightAware
09:16PM 32.4840 -107.3070 101° East 518 596 39,000  Level FlightAware
09:17PM 32.4660 -107.1980 101° East 516 594 39,000  Level FlightAware
09:18PM 32.4340 -107.0010 101° East 517 595 39,000  Level FlightAware
09:19PM 32.4180 -106.9040 101° East 518 596 39,000  Level FlightAware
09:19PM 32.4040 -106.8200 101° East 519 597 39,000  Level FlightAware
09:20PM 32.3770 -106.6580 101° East 521 600 39,000  Level FlightAware
09:21PM 32.3510 -106.5020 101° East 524 603 39,000  Level FlightAware
09:22PM 32.3250 -106.3470 101° East 524 603 39,000  Level FlightAware
09:23PM 32.3130 -106.2780 102° East 525 604 39,000  Level FlightAware
09:24PM 32.2870 -106.1250 101° East 526 605 39,000  Level FlightAware
09:24PM 32.2690 -106.0170 101° East 527 606 39,000  Level FlightAware
09:25PM 32.2500 -105.9110 102° East 529 609 39,000  Level FlightAware
09:26PM 32.2210 -105.7320 101° East 529 609 39,000  Level FlightAware
09:27PM 32.2020 -105.6170 101° East 529 609 39,000  Level FlightAware
09:28PM 32.1820 -105.4980 101° East 529 609 39,000  Level FlightAware
09:28PM 32.1680 -105.4110 101° East 529 609 39,000  Level FlightAware
09:29PM 32.1480 -105.2930 101° East 529 609 39,000  Level FlightAware
09:30PM 32.1250 -105.1490 101° East 529 609 39,000  Level FlightAware
09:31PM 32.1050 -105.0330 101° East 529 609 39,000  Level FlightAware
09:31PM 32.0960 -104.9750 100° East 529 609 39,000  Level FlightAware
09:32PM 32.0760 -104.8570 101° East 529 609 39,000  Level FlightAware
09:33PM 32.0530 -104.7120 101° East 529 609 39,000  Level FlightAware
09:34PM 32.0290 -104.5680 101° East 529 609 39,000  Level FlightAware
09:35PM 32.0140 -104.4810 101° East 529 609 39,000  Level FlightAware
09:39PM 31.8180 -103.5530 104° East 520 598 39,000  Level FlightAware
09:40PM 31.8000 -103.4550 102° East 520 598 39,000  Level FlightAware
09:40PM 31.7870 -103.3960 105° East 521 600 39,000  Level FlightAware
09:41PM 31.7610 -103.2520 102° East 521 600 39,000  Level FlightAware
09:41PM 31.7380 -103.1480 105° East 521 600 39,000  Level FlightAware
09:42PM 31.7150 -103.0280 103° East 521 600 39,000  Level FlightAware
09:43PM 31.6880 -102.8950 103° East 523 602 39,000  Level FlightAware
09:44PM 31.6570 -102.7400 103° East 523 602 39,000  Level FlightAware
09:45PM 31.6330 -102.6190 103° East 524 603 39,000  Level FlightAware
09:45PM 31.6040 -102.4730 103° East 525 604 39,000  Level FlightAware
09:46PM 31.5780 -102.3500 104° East 525 604 39,000  Level FlightAware
09:47PM 31.5460 -102.1920 103° East 524 603 39,000  Level FlightAware
09:48PM 31.5200 -102.0680 104° East 523 602 39,000  Level FlightAware
09:49PM 31.4940 -101.9380 103° East 522 601 39,000  Level FlightAware
09:49PM 31.4710 -101.8280 104° East 521 600 39,000  Level FlightAware
09:50PM 31.4440 -101.7010 104° East 520 598 39,000  Level FlightAware
09:51PM 31.4240 -101.6050 104° East 520 598 39,000  Level FlightAware
09:51PM 31.3960 -101.4740 104° East 520 598 39,000  Level FlightAware
09:52PM 31.3810 -101.4030 104° East 520 598 39,000  Level FlightAware
09:53PM 31.3600 -101.3010 104° East 519 597 39,000  Level FlightAware
09:53PM 31.3410 -101.2140 104° East 518 596 39,000  Level FlightAware
09:54PM 31.3140 -101.0850 104° East 517 595 39,000  Level FlightAware
09:55PM 31.2900 -100.9740 104° East 515 593 39,000  Level FlightAware
09:55PM 31.2590 -100.8330 104° East 515 593 39,000  Level FlightAware
09:56PM 31.2370 -100.7340 105° East 515 593 39,000  Level FlightAware
09:57PM 31.2050 -100.5860 104° East 517 595 39,000  Level FlightAware
09:58PM 31.1760 -100.4560 105° East 518 596 39,000  Level FlightAware
09:59PM 31.1470 -100.3220 104° East 519 597 39,000  Level FlightAware
10:00PM 31.1120 -100.1650 105° East 520 598 39,000  Level FlightAware
10:00PM 31.0850 -100.0460 105° East 519 597 39,000  Level FlightAware
10:01PM 31.0540 -99.9070 105° East 520 598 39,000  Level FlightAware
10:02PM 31.0240 -99.7760 105° East 520 598 39,000  Level FlightAware
10:03PM 31.0010 -99.6290 100° East 520 598 39,000  Level FlightAware
10:04PM 30.9830 -99.4900 99° East 519 597 39,000  Level FlightAware
10:05PM 30.9640 -99.3480 99° East 518 596 39,000  Level FlightAware
10:05PM 30.9450 -99.2040 99° East 519 597 39,000  Level FlightAware
10:06PM 30.9370 -99.1390 98° East 519 597 39,000  Level FlightAware
10:07PM 30.9180 -99.0000 99° East 518 596 39,000  Level FlightAware
10:07PM 30.9040 -98.8910 98° East 517 595 39,000  Level FlightAware
10:08PM 30.8820 -98.7320 99° East 516 594 39,000  Level FlightAware
10:09PM 30.8730 -98.6660 99° East 516 594 39,000  Level FlightAware
10:10PM 30.8510 -98.5010 99° East 514 592 39,000  Level FlightAware
10:11PM 30.8290 -98.3480 99° East 513 590 39,000  Level FlightAware
10:11PM 30.8120 -98.2230 99° East 512 589 39,000  Level FlightAware
10:12PM 30.8030 -98.1590 99° East 513 590 39,000  Level FlightAware
10:12PM 30.7880 -98.0510 99° East 512 589 39,000  Level FlightAware
10:13PM 30.7570 -97.9030 104° East 516 594 39,000 -300 Level FlightAware
10:14PM 30.7420 -97.8550 110° East 518 596 38,700 -960 Descending FlightAware
10:15PM 30.6970 -97.7150 110° East 525 604 37,900 -1,140 Descending FlightAware
10:15PM 30.6790 -97.6560 110° East 521 600 37,300 -2,460 Descending FlightAware
10:16PM 30.6430 -97.5460 111° Southeast 525 604 35,200 -3,060 Descending FlightAware
10:17PM 30.5910 -97.3830 110° East 524 603 32,100 -3,000 Descending FlightAware
10:17PM 30.5530 -97.2670 111° Southeast 519 597 29,900 -2,880 Descending FlightAware
10:18PM 30.5090 -97.1280 110° East 502 578 27,400 -2,700 Descending FlightAware
10:19PM 30.4680 -97.0010 111° Southeast 482 555 25,300 -2,520 Descending FlightAware
10:20PM 30.4240 -96.8670 111° Southeast 458 527 22,900 -2,400 Descending FlightAware
10:21PM 30.3920 -96.7700 111° Southeast 439 505 21,300 -2,280 Descending FlightAware
10:22PM 30.3560 -96.6620 111° Southeast 419 482 19,400 -2,220 Descending FlightAware
10:22PM 30.3240 -96.5640 111° Southeast 404 465 17,700 -2,340 Descending FlightAware
10:23PM 30.2920 -96.4660 111° Southeast 396 456 15,700 -2,460 Descending FlightAware
10:24PM 30.2640 -96.3800 111° Southeast 387 445 13,900 -2,280 Descending FlightAware
10:25PM 30.2360 -96.2980 112° Southeast 371 427 12,400 -2,100 Descending FlightAware
10:25PM 30.2040 -96.2140 114° Southeast 354 407 10,800 -1,440 Descending FlightAware
10:26PM 30.1740 -96.1890 144° Southeast 341 392 10,700  Descending FlightAware
10:27PM 30.1210 -96.1610 155° Southeast 335 386 10,800 60 Climbing FlightAware
10:28PM 30.0340 -96.1140 155° Southeast 337 388 10,800  Level FlightAware
10:28PM 29.9670 -96.0790 156° South 337 388 10,800 -180 Level FlightAware
10:29PM 29.8990 -96.0440 156° South 338 389 10,600 -480 Descending FlightAware
10:29PM 29.8740 -96.0260 148° Southeast 324 373 10,300 -1,080 Descending FlightAware
10:30PM 29.8540 -96.0010 133° Southeast 311 358 9,900 -1,140 Descending FlightAware
10:30PM 29.8390 -95.9800 129° Southeast 306 352 9,600 -1,080 Descending FlightAware
10:31PM 29.8130 -95.9440 130° Southeast 299 344 9,100 -1,200 Descending FlightAware
10:31PM 29.7880 -95.9100 130° Southeast 293 337 8,500 -1,200 Descending FlightAware
10:32PM 29.7580 -95.8690 130° Southeast 288 331 7,900 -780 Descending FlightAware
10:32PM 29.7330 -95.8350 130° Southeast 284 327 7,700 -120 Descending FlightAware
10:33PM 29.7060 -95.7990 131° Southeast 282 325 7,800  Climbing FlightAware
10:33PM 29.6860 -95.7710 129° Southeast 281 323 7,700 -720 Descending FlightAware
10:33PM 29.6700 -95.7490 130° Southeast 281 323 7,300 -1,320 Descending FlightAware
10:34PM 29.6540 -95.7280 131° Southeast 278 320 6,900 -1,320 Descending FlightAware
10:34PM 29.6360 -95.7030 130° Southeast 274 315 6,400 -1,320 Descending FlightAware
10:34PM 29.6170 -95.6770 130° Southeast 271 312 5,900 -1,200 Descending FlightAware
10:35PM 29.5910 -95.6420 131° Southeast 261 300 5,300 -900 Descending FlightAware
10:35PM 29.5690 -95.6130 131° Southeast 240 276 5,000 -720 Descending FlightAware
10:36PM 29.5540 -95.5920 129° Southeast 225 259 4,700 -840 Descending FlightAware
10:36PM 29.5350 -95.5670 131° Southeast 216 249 4,300 -960 Descending FlightAware
10:37PM 29.5160 -95.5400 129° Southeast 219 252 3,800 -960 Descending FlightAware
10:37PM 29.4950 -95.5120 131° Southeast 205 236 3,300 -1,020 Descending FlightAware
10:38PM 29.4860 -95.4860 112° Southeast 190 219 2,800 -780 Descending FlightAware
10:38PM 29.4880 -95.4640 84° East 180 207 2,700 -180 Descending FlightAware
10:39PM 29.4990 -95.4440 58° Northeast 176 203 2,700 -300 Level FlightAware
10:39PM 29.5100 -95.4310 46° Northeast 176 203 2,500 -540 Descending FlightAware
10:39PM 29.5250 -95.4130 46° Northeast 174 200 2,300 -540 Descending FlightAware
10:40PM 29.5370 -95.3970 49° Northeast 176 203 2,100 -600 Descending FlightAware
10:40PM 29.5540 -95.3780 44° Northeast 159 183 1,800 -420 Descending FlightAware
10:40PM 29.5630 -95.3690 41° Northeast 159 183 1,800 -540 Level FlightAware
10:41PM 29.5790 -95.3510 44° Northeast 144 166 1,400 -780 Descending FlightAware
10:41PM 29.5900 -95.3400 41° Northeast 124 143 1,100 -720 Descending FlightAware
10:42PM 29.6050 -95.3230 45° Northeast 122 140 700 -600 Descending FlightAware
10:42PM 29.6150 -95.3120 44° Northeast 120 138 500 -600 Descending FlightAware
10:43PM 29.6250 -95.3010 44° Northeast 128 147 200 -720 Descending FlightAware
10:43PM 29.6370 -95.2870 45° Northeast 134 154 -480 Descending FlightAware
10:44PM 29.6480 -95.2760 41° Northeast 134 154  Level FlightAware